Aeroporto :
LOGIN :

Iscrizione | Disclaimer

   EN    FR    IT 

 










Sommario :    VFR   VFR Marginale   IFR   IFR Intensivo   IFR Molto Intensivo
Visibilità : 
Base nubi : 
>= 8 km
>= 3000ft
5 / 8 km
1000 / 3000 ft
1500m / 5 km
500 / 1000 ft
800 / 1500m
200 / 500 ft
< 800m
< 200 ft
Simboli :   Temporali  Nebbia  Neve Forte  Precipitazioni Forti  Vento > 20 kt
SIGMETs :   Varie  Temporali  Ghiacco  Turbolenza  Onda orograficha  Ceneri Vulcaniche






- Altitudine del aeroporto : 233 ft
- Codice IATA : REU


LERS - Reus Tarragona

ULTIMO METAR :
  • 181630Z 20004KT 160V230 9999 FEW040 12/08 Q1023

METARs OBSOLETI :
  • 181600Z 20005KT 160V240 9999 FEW040 13/07 Q1023
  • 181530Z 20007KT 140V240 9999 FEW040 13/07 Q1024
  • 181500Z 20007KT 140V240 9999 FEW040 13/07 Q1024
  • 181430Z 20008KT 150V230 9999 FEW040 13/07 Q1025
  • 181400Z 18008KT 120V230 9999 FEW040 14/06 Q1025

TAF TAF LERS
Valido dal 18 a 15 ore il 19 a 15 ore UTC


181400Z 1815/1915 19008KT 9999 FEW040 TX13/1913Z TN05/1906Z
BECMG 1815/1817 VRB03KT
BECMG 1902/1904 03012KT
TEMPO 1904/1915 4000 RA BKN020 FEW025TCU
PROB30
TEMPO 1904/1913 3000 TSRA FEW025CB



MetMap, La meteo Aeronautica in un colpo d'occhio ! - Copyright ORBIFLY Dicembre 2007 - Disclaimer

ORBIFLY MET'MAP TEAM :

Programmazione e sviluppo : Alexandra Zaïnal
Concezione : Baudouin d'Aumeries
Aiuto per la programmazione : Marc-Olivier Méhu
Supporto tecnico e logistico : Manuel Goepfert
Aiuto per la traduzione : Arnaldo La Scala

Contatto : metmap@orbifly.com




FONTI E CREDITI :

   NOAA